sensor_id;sensor_type;location;lat;lon;timestamp;P1;durP1;ratioP1;P2;durP2;ratioP2
56345;SDS011;42246;46.096;13.644;2022-09-29T00:00:23;0.63;;;0.38;;
56345;SDS011;42246;46.096;13.644;2022-09-29T00:02:49;0.22;;;0.20;;
56345;SDS011;42246;46.096;13.644;2022-09-29T00:05:14;0.20;;;0.03;;
56345;SDS011;42246;46.096;13.644;2022-09-29T00:07:40;0.30;;;0.20;;
56345;SDS011;42246;46.096;13.644;2022-09-29T00:10:05;0.30;;;0.13;;
56345;SDS011;42246;46.096;13.644;2022-09-29T00:12:31;5.05;;;0.38;;
56345;SDS011;42246;46.096;13.644;2022-09-29T00:14:56;1.15;;;0.75;;
56345;SDS011;42246;46.096;13.644;2022-09-29T00:17:22;0.30;;;0.20;;
56345;SDS011;42246;46.096;13.644;2022-09-29T00:19:47;0.10;;;0.10;;
56345;SDS011;42246;46.096;13.644;2022-09-29T00:22:12;0.82;;;0.40;;
56345;SDS011;42246;46.096;13.644;2022-09-29T00:24:38;0.38;;;0.32;;
56345;SDS011;42246;46.096;13.644;2022-09-29T00:27:03;0.52;;;0.20;;
56345;SDS011;42246;46.096;13.644;2022-09-29T00:29:29;1.23;;;0.57;;
56345;SDS011;42246;46.096;13.644;2022-09-29T00:31:54;0.40;;;0.17;;
56345;SDS011;42246;46.096;13.644;2022-09-29T00:34:20;1.45;;;0.30;;
56345;SDS011;42246;46.096;13.644;2022-09-29T00:36:45;0.45;;;0.20;;
56345;SDS011;42246;46.096;13.644;2022-09-29T00:39:11;0.50;;;0.50;;
56345;SDS011;42246;46.096;13.644;2022-09-29T00:41:38;0.88;;;0.32;;
56345;SDS011;42246;46.096;13.644;2022-09-29T00:54:30;1.05;;;0.25;;
56345;SDS011;42246;46.096;13.644;2022-09-29T00:56:57;0.28;;;0.20;;
56345;SDS011;42246;46.096;13.644;2022-09-29T00:59:35;1.20;;;0.30;;
56345;SDS011;42246;46.096;13.644;2022-09-29T01:02:07;0.20;;;0.10;;
56345;SDS011;42246;46.096;13.644;2022-09-29T01:04:33;1.30;;;0.30;;
56345;SDS011;42246;46.096;13.644;2022-09-29T01:06:59;0.52;;;0.20;;
56345;SDS011;42246;46.096;13.644;2022-09-29T01:09:26;0.43;;;0.43;;
56345;SDS011;42246;46.096;13.644;2022-09-29T01:11:54;0.50;;;0.17;;
56345;SDS011;42246;46.096;13.644;2022-09-29T01:14:22;1.02;;;0.30;;
56345;SDS011;42246;46.096;13.644;2022-09-29T01:16:48;2.47;;;0.50;;
56345;SDS011;42246;46.096;13.644;2022-09-29T01:19:15;0.35;;;0.10;;
56345;SDS011;42246;46.096;13.644;2022-09-29T01:21:48;0.17;;;0.17;;
56345;SDS011;42246;46.096;13.644;2022-09-29T01:25:02;0.47;;;0.13;;
56345;SDS011;42246;46.096;13.644;2022-09-29T01:30:04;1.17;;;0.83;;
56345;SDS011;42246;46.096;13.644;2022-09-29T01:35:08;3.13;;;0.80;;
56345;SDS011;42246;46.096;13.644;2022-09-29T01:42:54;0.65;;;0.10;;
56345;SDS011;42246;46.096;13.644;2022-09-29T01:45:32;0.05;;;0.03;;
56345;SDS011;42246;46.096;13.644;2022-09-29T01:48:10;2.28;;;0.20;;
56345;SDS011;42246;46.096;13.644;2022-09-29T01:50:51;0.30;;;0.10;;
56345;SDS011;42246;46.096;13.644;2022-09-29T01:53:24;1.80;;;0.30;;
56345;SDS011;42246;46.096;13.644;2022-09-29T01:55:55;0.03;;;0.03;;
56345;SDS011;42246;46.096;13.644;2022-09-29T01:58:26;1.15;;;0.50;;
56345;SDS011;42246;46.096;13.644;2022-09-29T02:01:05;0.35;;;0.10;;
56345;SDS011;42246;46.096;13.644;2022-09-29T02:03:39;0.25;;;0.10;;
56345;SDS011;42246;46.096;13.644;2022-09-29T02:06:07;0.52;;;0.10;;
56345;SDS011;42246;46.096;13.644;2022-09-29T02:08:45;0.40;;;0.20;;
56345;SDS011;42246;46.096;13.644;2022-09-29T02:11:13;0.37;;;0.20;;
56345;SDS011;42246;46.096;13.644;2022-09-29T02:16:53;1.67;;;0.20;;
56345;SDS011;42246;46.096;13.644;2022-09-29T02:19:32;1.02;;;0.20;;
56345;SDS011;42246;46.096;13.644;2022-09-29T02:22:00;0.30;;;0.10;;
56345;SDS011;42246;46.096;13.644;2022-09-29T02:24:25;0.35;;;0.15;;
56345;SDS011;42246;46.096;13.644;2022-09-29T02:26:51;0.57;;;0.10;;
56345;SDS011;42246;46.096;13.644;2022-09-29T02:29:17;0.10;;;0.10;;
56345;SDS011;42246;46.096;13.644;2022-09-29T02:31:43;0.73;;;0.55;;
56345;SDS011;42246;46.096;13.644;2022-09-29T02:34:10;0.20;;;0.20;;
56345;SDS011;42246;46.096;13.644;2022-09-29T02:36:39;0.70;;;0.30;;
56345;SDS011;42246;46.096;13.644;2022-09-29T02:39:14;0.43;;;0.20;;
56345;SDS011;42246;46.096;13.644;2022-09-29T02:50:20;0.95;;;0.10;;
56345;SDS011;42246;46.096;13.644;2022-09-29T02:52:55;0.00;;;0.00;;
56345;SDS011;42246;46.096;13.644;2022-09-29T02:58:48;0.60;;;0.10;;
56345;SDS011;42246;46.096;13.644;2022-09-29T03:03:42;0.10;;;0.10;;
56345;SDS011;42246;46.096;13.644;2022-09-29T03:06:08;0.13;;;0.10;;
56345;SDS011;42246;46.096;13.644;2022-09-29T03:08:35;0.32;;;0.20;;
56345;SDS011;42246;46.096;13.644;2022-09-29T03:11:00;0.28;;;0.10;;
56345;SDS011;42246;46.096;13.644;2022-09-29T03:13:26;0.20;;;0.10;;
56345;SDS011;42246;46.096;13.644;2022-09-29T03:15:51;0.10;;;0.10;;
56345;SDS011;42246;46.096;13.644;2022-09-29T03:18:17;3.00;;;0.20;;
56345;SDS011;42246;46.096;13.644;2022-09-29T03:20:42;0.05;;;0.05;;
56345;SDS011;42246;46.096;13.644;2022-09-29T03:23:08;0.52;;;0.20;;
56345;SDS011;42246;46.096;13.644;2022-09-29T03:25:33;0.70;;;0.13;;
56345;SDS011;42246;46.096;13.644;2022-09-29T03:27:58;3.30;;;0.30;;
56345;SDS011;42246;46.096;13.644;2022-09-29T03:30:24;1.13;;;0.20;;
56345;SDS011;42246;46.096;13.644;2022-09-29T03:32:49;0.40;;;0.10;;
56345;SDS011;42246;46.096;13.644;2022-09-29T03:35:15;0.10;;;0.10;;
56345;SDS011;42246;46.096;13.644;2022-09-29T03:37:41;0.10;;;0.10;;
56345;SDS011;42246;46.096;13.644;2022-09-29T03:40:06;0.20;;;0.20;;
56345;SDS011;42246;46.096;13.644;2022-09-29T03:42:32;2.25;;;0.68;;
56345;SDS011;42246;46.096;13.644;2022-09-29T03:44:58;1.65;;;0.63;;
56345;SDS011;42246;46.096;13.644;2022-09-29T03:47:23;1.70;;;0.10;;
56345;SDS011;42246;46.096;13.644;2022-09-29T03:49:49;0.30;;;0.30;;
56345;SDS011;42246;46.096;13.644;2022-09-29T03:52:14;0.15;;;0.10;;
56345;SDS011;42246;46.096;13.644;2022-09-29T03:54:40;0.30;;;0.10;;
56345;SDS011;42246;46.096;13.644;2022-09-29T03:57:05;0.25;;;0.10;;
56345;SDS011;42246;46.096;13.644;2022-09-29T03:59:31;1.38;;;0.10;;
56345;SDS011;42246;46.096;13.644;2022-09-29T04:01:56;0.10;;;0.10;;
56345;SDS011;42246;46.096;13.644;2022-09-29T04:04:22;0.20;;;0.10;;
56345;SDS011;42246;46.096;13.644;2022-09-29T04:06:47;0.30;;;0.30;;
56345;SDS011;42246;46.096;13.644;2022-09-29T04:09:13;0.50;;;0.38;;
56345;SDS011;42246;46.096;13.644;2022-09-29T04:11:38;0.20;;;0.20;;
56345;SDS011;42246;46.096;13.644;2022-09-29T04:14:04;0.20;;;0.10;;
56345;SDS011;42246;46.096;13.644;2022-09-29T04:16:29;0.17;;;0.10;;
56345;SDS011;42246;46.096;13.644;2022-09-29T04:18:55;0.63;;;0.13;;
56345;SDS011;42246;46.096;13.644;2022-09-29T04:21:21;0.30;;;0.20;;
56345;SDS011;42246;46.096;13.644;2022-09-29T04:23:46;1.40;;;0.30;;
56345;SDS011;42246;46.096;13.644;2022-09-29T04:26:12;0.85;;;0.30;;
56345;SDS011;42246;46.096;13.644;2022-09-29T04:28:38;0.52;;;0.10;;
56345;SDS011;42246;46.096;13.644;2022-09-29T04:31:04;0.30;;;0.17;;
56345;SDS011;42246;46.096;13.644;2022-09-29T04:33:30;1.58;;;0.28;;
56345;SDS011;42246;46.096;13.644;2022-09-29T04:35:56;0.73;;;0.20;;
56345;SDS011;42246;46.096;13.644;2022-09-29T04:38:22;1.45;;;0.13;;
56345;SDS011;42246;46.096;13.644;2022-09-29T04:40:48;1.00;;;0.20;;
56345;SDS011;42246;46.096;13.644;2022-09-29T04:43:13;0.60;;;0.20;;
56345;SDS011;42246;46.096;13.644;2022-09-29T04:45:39;0.13;;;0.10;;
56345;SDS011;42246;46.096;13.644;2022-09-29T04:48:04;0.10;;;0.10;;
56345;SDS011;42246;46.096;13.644;2022-09-29T04:50:30;0.50;;;0.10;;
56345;SDS011;42246;46.096;13.644;2022-09-29T04:52:56;0.20;;;0.17;;
56345;SDS011;42246;46.096;13.644;2022-09-29T04:55:21;1.15;;;0.20;;
56345;SDS011;42246;46.096;13.644;2022-09-29T04:57:47;0.90;;;0.60;;
56345;SDS011;42246;46.096;13.644;2022-09-29T05:00:13;2.65;;;1.35;;
56345;SDS011;42246;46.096;13.644;2022-09-29T05:02:39;4.45;;;1.92;;
56345;SDS011;42246;46.096;13.644;2022-09-29T05:05:05;3.80;;;2.20;;
56345;SDS011;42246;46.096;13.644;2022-09-29T05:07:33;1.17;;;1.08;;
56345;SDS011;42246;46.096;13.644;2022-09-29T05:09:58;2.15;;;0.50;;
56345;SDS011;42246;46.096;13.644;2022-09-29T05:12:24;0.10;;;0.10;;
56345;SDS011;42246;46.096;13.644;2022-09-29T05:14:49;0.10;;;0.10;;
56345;SDS011;42246;46.096;13.644;2022-09-29T05:17:14;0.10;;;0.10;;
56345;SDS011;42246;46.096;13.644;2022-09-29T05:19:40;0.45;;;0.10;;
56345;SDS011;42246;46.096;13.644;2022-09-29T05:22:05;0.40;;;0.10;;
56345;SDS011;42246;46.096;13.644;2022-09-29T05:24:31;0.38;;;0.13;;
56345;SDS011;42246;46.096;13.644;2022-09-29T05:26:56;0.63;;;0.20;;
56345;SDS011;42246;46.096;13.644;2022-09-29T05:29:22;2.20;;;0.30;;
56345;SDS011;42246;46.096;13.644;2022-09-29T05:31:48;1.77;;;0.50;;
56345;SDS011;42246;46.096;13.644;2022-09-29T05:34:13;2.30;;;1.15;;
56345;SDS011;42246;46.096;13.644;2022-09-29T05:36:39;5.70;;;2.35;;
56345;SDS011;42246;46.096;13.644;2022-09-29T05:39:04;2.15;;;1.52;;
56345;SDS011;42246;46.096;13.644;2022-09-29T05:41:30;18.00;;;10.38;;
56345;SDS011;42246;46.096;13.644;2022-09-29T05:43:55;26.08;;;11.02;;
56345;SDS011;42246;46.096;13.644;2022-09-29T05:46:21;24.63;;;13.20;;
56345;SDS011;42246;46.096;13.644;2022-09-29T05:48:47;12.60;;;9.57;;
56345;SDS011;42246;46.096;13.644;2022-09-29T05:51:16;3.25;;;2.28;;
56345;SDS011;42246;46.096;13.644;2022-09-29T05:53:42;3.50;;;2.00;;
56345;SDS011;42246;46.096;13.644;2022-09-29T05:56:09;2.20;;;1.13;;
56345;SDS011;42246;46.096;13.644;2022-09-29T05:58:36;1.92;;;0.63;;
56345;SDS011;42246;46.096;13.644;2022-09-29T06:01:06;1.88;;;1.05;;
56345;SDS011;42246;46.096;13.644;2022-09-29T06:03:33;1.33;;;0.57;;
56345;SDS011;42246;46.096;13.644;2022-09-29T06:08:32;1.58;;;0.93;;
56345;SDS011;42246;46.096;13.644;2022-09-29T06:13:53;3.25;;;1.05;;
56345;SDS011;42246;46.096;13.644;2022-09-29T06:16:21;4.32;;;2.58;;
56345;SDS011;42246;46.096;13.644;2022-09-29T06:18:50;3.13;;;1.90;;
56345;SDS011;42246;46.096;13.644;2022-09-29T06:21:17;1.45;;;0.65;;
56345;SDS011;42246;46.096;13.644;2022-09-29T06:23:43;3.28;;;0.65;;
56345;SDS011;42246;46.096;13.644;2022-09-29T06:26:10;1.02;;;0.63;;
56345;SDS011;42246;46.096;13.644;2022-09-29T06:28:38;1.17;;;1.08;;
56345;SDS011;42246;46.096;13.644;2022-09-29T06:31:04;1.90;;;0.30;;
56345;SDS011;42246;46.096;13.644;2022-09-29T06:33:32;0.80;;;0.40;;
56345;SDS011;42246;46.096;13.644;2022-09-29T06:35:58;0.30;;;0.25;;
56345;SDS011;42246;46.096;13.644;2022-09-29T06:38:46;0.35;;;0.25;;
56345;SDS011;42246;46.096;13.644;2022-09-29T06:41:12;4.80;;;0.52;;
56345;SDS011;42246;46.096;13.644;2022-09-29T06:43:37;0.35;;;0.20;;
56345;SDS011;42246;46.096;13.644;2022-09-29T06:46:03;0.43;;;0.30;;
56345;SDS011;42246;46.096;13.644;2022-09-29T06:48:28;0.15;;;0.10;;
56345;SDS011;42246;46.096;13.644;2022-09-29T06:50:54;0.20;;;0.10;;
56345;SDS011;42246;46.096;13.644;2022-09-29T06:53:20;0.28;;;0.25;;
56345;SDS011;42246;46.096;13.644;2022-09-29T06:55:53;0.32;;;0.20;;
56345;SDS011;42246;46.096;13.644;2022-09-29T06:58:20;0.30;;;0.10;;
56345;SDS011;42246;46.096;13.644;2022-09-29T07:00:46;0.15;;;0.00;;
56345;SDS011;42246;46.096;13.644;2022-09-29T07:03:12;0.45;;;0.20;;
56345;SDS011;42246;46.096;13.644;2022-09-29T07:05:37;0.70;;;0.50;;
56345;SDS011;42246;46.096;13.644;2022-09-29T07:08:03;3.45;;;0.20;;
56345;SDS011;42246;46.096;13.644;2022-09-29T07:10:28;0.22;;;0.10;;
56345;SDS011;42246;46.096;13.644;2022-09-29T07:12:54;0.20;;;0.10;;
56345;SDS011;42246;46.096;13.644;2022-09-29T07:15:19;0.65;;;0.30;;
56345;SDS011;42246;46.096;13.644;2022-09-29T07:17:45;1.75;;;0.20;;
56345;SDS011;42246;46.096;13.644;2022-09-29T07:20:15;2.47;;;0.50;;
56345;SDS011;42246;46.096;13.644;2022-09-29T07:22:40;1.00;;;0.30;;
56345;SDS011;42246;46.096;13.644;2022-09-29T07:25:06;0.10;;;0.10;;
56345;SDS011;42246;46.096;13.644;2022-09-29T07:27:32;0.22;;;0.20;;
56345;SDS011;42246;46.096;13.644;2022-09-29T07:29:59;0.25;;;0.10;;
56345;SDS011;42246;46.096;13.644;2022-09-29T07:32:24;0.50;;;0.40;;
56345;SDS011;42246;46.096;13.644;2022-09-29T07:34:50;0.25;;;0.10;;
56345;SDS011;42246;46.096;13.644;2022-09-29T07:37:16;0.10;;;0.10;;
56345;SDS011;42246;46.096;13.644;2022-09-29T07:39:41;0.75;;;0.20;;
56345;SDS011;42246;46.096;13.644;2022-09-29T07:42:07;0.20;;;0.20;;
56345;SDS011;42246;46.096;13.644;2022-09-29T07:44:32;0.20;;;0.20;;
56345;SDS011;42246;46.096;13.644;2022-09-29T07:46:58;0.30;;;0.10;;
56345;SDS011;42246;46.096;13.644;2022-09-29T07:49:24;0.10;;;0.03;;
56345;SDS011;42246;46.096;13.644;2022-09-29T07:51:49;0.32;;;0.08;;
56345;SDS011;42246;46.096;13.644;2022-09-29T07:54:15;0.20;;;0.20;;
56345;SDS011;42246;46.096;13.644;2022-09-29T07:56:40;0.57;;;0.10;;
56345;SDS011;42246;46.096;13.644;2022-09-29T07:59:06;1.67;;;0.10;;
56345;SDS011;42246;46.096;13.644;2022-09-29T08:01:33;0.13;;;0.10;;
56345;SDS011;42246;46.096;13.644;2022-09-29T08:03:59;0.75;;;0.20;;
56345;SDS011;42246;46.096;13.644;2022-09-29T08:06:26;0.43;;;0.00;;
56345;SDS011;42246;46.096;13.644;2022-09-29T08:08:51;0.20;;;0.10;;
56345;SDS011;42246;46.096;13.644;2022-09-29T08:11:18;0.10;;;0.00;;
56345;SDS011;42246;46.096;13.644;2022-09-29T08:13:45;0.10;;;0.10;;
56345;SDS011;42246;46.096;13.644;2022-09-29T08:16:12;2.33;;;0.30;;
56345;SDS011;42246;46.096;13.644;2022-09-29T08:18:38;2.90;;;0.10;;
56345;SDS011;42246;46.096;13.644;2022-09-29T08:21:05;0.77;;;0.20;;
56345;SDS011;42246;46.096;13.644;2022-09-29T08:23:35;0.98;;;0.20;;
56345;SDS011;42246;46.096;13.644;2022-09-29T08:26:02;0.57;;;0.13;;
56345;SDS011;42246;46.096;13.644;2022-09-29T08:28:29;0.20;;;0.20;;
56345;SDS011;42246;46.096;13.644;2022-09-29T08:30:55;0.15;;;0.10;;
56345;SDS011;42246;46.096;13.644;2022-09-29T08:33:21;2.10;;;0.40;;
56345;SDS011;42246;46.096;13.644;2022-09-29T08:35:54;1.45;;;0.60;;
56345;SDS011;42246;46.096;13.644;2022-09-29T08:38:20;0.20;;;0.20;;
56345;SDS011;42246;46.096;13.644;2022-09-29T08:40:46;0.10;;;0.10;;
56345;SDS011;42246;46.096;13.644;2022-09-29T08:43:19;0.17;;;0.10;;
56345;SDS011;42246;46.096;13.644;2022-09-29T08:46:14;1.75;;;0.75;;
56345;SDS011;42246;46.096;13.644;2022-09-29T08:48:56;0.55;;;0.55;;
56345;SDS011;42246;46.096;13.644;2022-09-29T08:51:31;0.43;;;0.20;;
56345;SDS011;42246;46.096;13.644;2022-09-29T08:54:05;1.15;;;0.57;;
56345;SDS011;42246;46.096;13.644;2022-09-29T08:56:35;4.00;;;0.53;;
56345;SDS011;42246;46.096;13.644;2022-09-29T08:59:00;0.17;;;0.10;;
56345;SDS011;42246;46.096;13.644;2022-09-29T09:06:45;0.10;;;0.10;;
56345;SDS011;42246;46.096;13.644;2022-09-29T09:09:38;0.45;;;0.10;;
56345;SDS011;42246;46.096;13.644;2022-09-29T09:20:14;0.28;;;0.10;;
56345;SDS011;42246;46.096;13.644;2022-09-29T09:22:55;0.20;;;0.00;;
56345;SDS011;42246;46.096;13.644;2022-09-29T09:25:29;0.20;;;0.17;;
56345;SDS011;42246;46.096;13.644;2022-09-29T09:28:11;0.00;;;0.00;;
56345;SDS011;42246;46.096;13.644;2022-09-29T09:30:43;0.05;;;0.00;;
56345;SDS011;42246;46.096;13.644;2022-09-29T09:33:15;0.20;;;0.00;;
56345;SDS011;42246;46.096;13.644;2022-09-29T09:35:45;0.35;;;0.20;;
56345;SDS011;42246;46.096;13.644;2022-09-29T09:38:20;0.30;;;0.15;;
56345;SDS011;42246;46.096;13.644;2022-09-29T09:40:51;1.92;;;0.10;;
56345;SDS011;42246;46.096;13.644;2022-09-29T09:43:39;0.20;;;0.10;;
56345;SDS011;42246;46.096;13.644;2022-09-29T09:46:39;0.15;;;0.10;;
56345;SDS011;42246;46.096;13.644;2022-09-29T09:49:15;0.52;;;0.10;;
56345;SDS011;42246;46.096;13.644;2022-09-29T09:51:54;0.63;;;0.20;;
56345;SDS011;42246;46.096;13.644;2022-09-29T09:54:29;0.68;;;0.05;;
56345;SDS011;42246;46.096;13.644;2022-09-29T09:59:58;0.13;;;0.10;;
56345;SDS011;42246;46.096;13.644;2022-09-29T10:02:25;0.20;;;0.10;;
56345;SDS011;42246;46.096;13.644;2022-09-29T10:04:51;0.40;;;0.20;;
56345;SDS011;42246;46.096;13.644;2022-09-29T10:07:18;1.33;;;0.25;;
56345;SDS011;42246;46.096;13.644;2022-09-29T10:09:44;0.57;;;0.15;;
56345;SDS011;42246;46.096;13.644;2022-09-29T10:12:16;0.22;;;0.00;;
56345;SDS011;42246;46.096;13.644;2022-09-29T10:14:52;0.68;;;0.20;;
56345;SDS011;42246;46.096;13.644;2022-09-29T10:17:22;0.25;;;0.25;;
56345;SDS011;42246;46.096;13.644;2022-09-29T10:19:55;0.15;;;0.15;;
56345;SDS011;42246;46.096;13.644;2022-09-29T10:22:25;0.10;;;0.10;;
56345;SDS011;42246;46.096;13.644;2022-09-29T10:25:13;1.95;;;0.30;;
56345;SDS011;42246;46.096;13.644;2022-09-29T10:27:41;2.25;;;0.45;;
56345;SDS011;42246;46.096;13.644;2022-09-29T10:30:18;0.52;;;0.20;;
56345;SDS011;42246;46.096;13.644;2022-09-29T10:32:44;2.28;;;0.63;;
56345;SDS011;42246;46.096;13.644;2022-09-29T10:35:24;0.28;;;0.10;;
56345;SDS011;42246;46.096;13.644;2022-09-29T10:37:57;0.35;;;0.10;;
56345;SDS011;42246;46.096;13.644;2022-09-29T10:40:26;0.13;;;0.08;;
56345;SDS011;42246;46.096;13.644;2022-09-29T10:42:52;0.52;;;0.20;;
56345;SDS011;42246;46.096;13.644;2022-09-29T10:50:32;0.88;;;0.22;;
56345;SDS011;42246;46.096;13.644;2022-09-29T10:53:00;0.30;;;0.10;;
56345;SDS011;42246;46.096;13.644;2022-09-29T10:55:30;0.50;;;0.10;;
56345;SDS011;42246;46.096;13.644;2022-09-29T10:57:57;0.52;;;0.20;;
56345;SDS011;42246;46.096;13.644;2022-09-29T11:00:33;0.52;;;0.20;;
56345;SDS011;42246;46.096;13.644;2022-09-29T11:03:20;0.10;;;0.10;;
56345;SDS011;42246;46.096;13.644;2022-09-29T11:06:00;0.28;;;0.10;;
56345;SDS011;42246;46.096;13.644;2022-09-29T11:08:27;2.85;;;0.20;;
56345;SDS011;42246;46.096;13.644;2022-09-29T11:13:46;0.15;;;0.03;;
56345;SDS011;42246;46.096;13.644;2022-09-29T11:16:15;0.00;;;0.00;;
56345;SDS011;42246;46.096;13.644;2022-09-29T11:18:43;1.90;;;0.20;;
56345;SDS011;42246;46.096;13.644;2022-09-29T11:39:34;18.42;;;8.57;;
56345;SDS011;42246;46.096;13.644;2022-09-29T11:45:07;19.83;;;7.70;;
56345;SDS011;42246;46.096;13.644;2022-09-29T11:50:18;2.65;;;1.95;;
56345;SDS011;42246;46.096;13.644;2022-09-29T11:55:43;3.95;;;1.55;;
56345;SDS011;42246;46.096;13.644;2022-09-29T12:04:52;2.42;;;1.30;;
56345;SDS011;42246;46.096;13.644;2022-09-29T12:13:27;0.77;;;0.30;;
56345;SDS011;42246;46.096;13.644;2022-09-29T12:15:58;0.52;;;0.17;;
56345;SDS011;42246;46.096;13.644;2022-09-29T12:18:29;1.10;;;0.40;;
56345;SDS011;42246;46.096;13.644;2022-09-29T12:21:00;0.70;;;0.50;;
56345;SDS011;42246;46.096;13.644;2022-09-29T12:23:26;0.40;;;0.20;;
56345;SDS011;42246;46.096;13.644;2022-09-29T12:28:43;0.30;;;0.20;;
56345;SDS011;42246;46.096;13.644;2022-09-29T12:31:25;0.70;;;0.40;;
56345;SDS011;42246;46.096;13.644;2022-09-29T12:33:57;3.53;;;0.80;;
56345;SDS011;42246;46.096;13.644;2022-09-29T12:37:09;0.13;;;0.10;;
56345;SDS011;42246;46.096;13.644;2022-09-29T12:47:49;0.35;;;0.00;;
56345;SDS011;42246;46.096;13.644;2022-09-29T12:55:44;0.52;;;0.00;;
56345;SDS011;42246;46.096;13.644;2022-09-29T12:58:36;5.03;;;1.42;;
56345;SDS011;42246;46.096;13.644;2022-09-29T13:03:51;4.60;;;0.45;;
56345;SDS011;42246;46.096;13.644;2022-09-29T13:31:12;0.95;;;0.10;;
56345;SDS011;42246;46.096;13.644;2022-09-29T13:33:44;0.55;;;0.10;;
56345;SDS011;42246;46.096;13.644;2022-09-29T13:36:24;0.00;;;0.00;;
56345;SDS011;42246;46.096;13.644;2022-09-29T13:38:55;1.00;;;0.28;;
56345;SDS011;42246;46.096;13.644;2022-09-29T13:49:10;1.20;;;0.20;;
56345;SDS011;42246;46.096;13.644;2022-09-29T13:54:35;0.03;;;0.00;;
56345;SDS011;42246;46.096;13.644;2022-09-29T14:05:00;0.00;;;0.00;;
56345;SDS011;42246;46.096;13.644;2022-09-29T14:07:39;0.00;;;0.00;;
56345;SDS011;42246;46.096;13.644;2022-09-29T14:13:07;0.20;;;0.00;;
56345;SDS011;42246;46.096;13.644;2022-09-29T14:16:09;0.00;;;0.00;;
56345;SDS011;42246;46.096;13.644;2022-09-29T14:18:37;0.65;;;0.00;;
56345;SDS011;42246;46.096;13.644;2022-09-29T14:21:10;0.32;;;0.15;;
56345;SDS011;42246;46.096;13.644;2022-09-29T14:29:20;0.00;;;0.00;;
56345;SDS011;42246;46.096;13.644;2022-09-29T14:31:49;0.25;;;0.20;;
56345;SDS011;42246;46.096;13.644;2022-09-29T14:34:17;0.00;;;0.00;;
56345;SDS011;42246;46.096;13.644;2022-09-29T14:36:46;0.00;;;0.00;;
56345;SDS011;42246;46.096;13.644;2022-09-29T14:39:13;0.08;;;0.08;;
56345;SDS011;42246;46.096;13.644;2022-09-29T14:41:44;0.77;;;0.10;;
56345;SDS011;42246;46.096;13.644;2022-09-29T14:44:33;0.05;;;0.00;;
56345;SDS011;42246;46.096;13.644;2022-09-29T14:50:20;0.35;;;0.20;;
56345;SDS011;42246;46.096;13.644;2022-09-29T14:56:14;0.70;;;0.22;;
56345;SDS011;42246;46.096;13.644;2022-09-29T15:01:30;0.75;;;0.15;;
56345;SDS011;42246;46.096;13.644;2022-09-29T15:04:32;1.40;;;0.30;;
56345;SDS011;42246;46.096;13.644;2022-09-29T15:06:51;3.03;;;0.65;;
56345;SDS011;42246;46.096;13.644;2022-09-29T15:09:18;0.20;;;0.00;;
56345;SDS011;42246;46.096;13.644;2022-09-29T15:11:52;0.00;;;0.00;;
56345;SDS011;42246;46.096;13.644;2022-09-29T15:14:32;0.20;;;0.00;;
56345;SDS011;42246;46.096;13.644;2022-09-29T15:30:34;0.00;;;0.00;;
56345;SDS011;42246;46.096;13.644;2022-09-29T15:35:42;0.10;;;0.00;;
56345;SDS011;42246;46.096;13.644;2022-09-29T15:40:35;0.13;;;0.00;;
56345;SDS011;42246;46.096;13.644;2022-09-29T15:43:20;0.00;;;0.00;;
56345;SDS011;42246;46.096;13.644;2022-09-29T15:48:23;0.00;;;0.00;;
56345;SDS011;42246;46.096;13.644;2022-09-29T15:50:49;0.15;;;0.00;;
56345;SDS011;42246;46.096;13.644;2022-09-29T15:53:15;0.30;;;0.10;;
56345;SDS011;42246;46.096;13.644;2022-09-29T15:55:41;0.25;;;0.10;;
56345;SDS011;42246;46.096;13.644;2022-09-29T16:00:52;0.23;;;0.00;;
56345;SDS011;42246;46.096;13.644;2022-09-29T16:08:36;2.20;;;0.40;;
56345;SDS011;42246;46.096;13.644;2022-09-29T16:11:05;0.80;;;0.40;;
56345;SDS011;42246;46.096;13.644;2022-09-29T16:13:37;1.00;;;0.55;;
56345;SDS011;42246;46.096;13.644;2022-09-29T16:16:09;2.45;;;0.30;;
56345;SDS011;42246;46.096;13.644;2022-09-29T16:21:04;1.25;;;0.88;;
56345;SDS011;42246;46.096;13.644;2022-09-29T16:23:35;1.00;;;0.80;;
56345;SDS011;42246;46.096;13.644;2022-09-29T16:26:34;0.10;;;0.10;;
56345;SDS011;42246;46.096;13.644;2022-09-29T16:31:34;4.43;;;2.25;;
56345;SDS011;42246;46.096;13.644;2022-09-29T16:34:07;2.35;;;0.50;;
56345;SDS011;42246;46.096;13.644;2022-09-29T16:37:05;1.33;;;0.47;;
56345;SDS011;42246;46.096;13.644;2022-09-29T16:39:32;0.70;;;0.20;;
56345;SDS011;42246;46.096;13.644;2022-09-29T16:42:04;0.20;;;0.00;;
56345;SDS011;42246;46.096;13.644;2022-09-29T16:44:40;0.35;;;0.10;;
56345;SDS011;42246;46.096;13.644;2022-09-29T16:49:49;0.15;;;0.00;;
56345;SDS011;42246;46.096;13.644;2022-09-29T16:55:16;0.10;;;0.00;;
56345;SDS011;42246;46.096;13.644;2022-09-29T16:57:58;0.98;;;0.20;;
56345;SDS011;42246;46.096;13.644;2022-09-29T17:00:25;1.35;;;0.40;;
56345;SDS011;42246;46.096;13.644;2022-09-29T17:02:51;0.50;;;0.10;;
56345;SDS011;42246;46.096;13.644;2022-09-29T17:05:19;0.65;;;0.20;;
56345;SDS011;42246;46.096;13.644;2022-09-29T17:07:46;0.32;;;0.10;;
56345;SDS011;42246;46.096;13.644;2022-09-29T17:10:16;0.90;;;0.20;;
56345;SDS011;42246;46.096;13.644;2022-09-29T17:12:42;0.00;;;0.00;;
56345;SDS011;42246;46.096;13.644;2022-09-29T17:15:17;1.45;;;0.63;;
56345;SDS011;42246;46.096;13.644;2022-09-29T17:17:43;0.10;;;0.00;;
56345;SDS011;42246;46.096;13.644;2022-09-29T17:20:14;0.20;;;0.15;;
56345;SDS011;42246;46.096;13.644;2022-09-29T17:22:42;0.20;;;0.10;;
56345;SDS011;42246;46.096;13.644;2022-09-29T17:25:09;0.20;;;0.20;;
56345;SDS011;42246;46.096;13.644;2022-09-29T17:27:35;0.38;;;0.20;;
56345;SDS011;42246;46.096;13.644;2022-09-29T17:30:20;0.95;;;0.70;;
56345;SDS011;42246;46.096;13.644;2022-09-29T17:32:48;0.90;;;0.10;;
56345;SDS011;42246;46.096;13.644;2022-09-29T17:35:18;0.52;;;0.10;;
56345;SDS011;42246;46.096;13.644;2022-09-29T17:37:45;0.15;;;0.03;;
56345;SDS011;42246;46.096;13.644;2022-09-29T17:42:46;0.00;;;0.00;;
56345;SDS011;42246;46.096;13.644;2022-09-29T17:45:16;0.00;;;0.00;;
56345;SDS011;42246;46.096;13.644;2022-09-29T17:47:43;1.17;;;0.00;;
56345;SDS011;42246;46.096;13.644;2022-09-29T17:52:57;0.10;;;0.03;;
56345;SDS011;42246;46.096;13.644;2022-09-29T17:55:24;0.00;;;0.00;;
56345;SDS011;42246;46.096;13.644;2022-09-29T17:57:51;0.08;;;0.00;;
56345;SDS011;42246;46.096;13.644;2022-09-29T18:00:27;0.17;;;0.03;;
56345;SDS011;42246;46.096;13.644;2022-09-29T18:02:55;0.00;;;0.00;;
56345;SDS011;42246;46.096;13.644;2022-09-29T18:05:23;0.20;;;0.00;;
56345;SDS011;42246;46.096;13.644;2022-09-29T18:07:50;0.45;;;0.20;;
56345;SDS011;42246;46.096;13.644;2022-09-29T18:12:53;0.35;;;0.00;;
56345;SDS011;42246;46.096;13.644;2022-09-29T18:15:19;0.00;;;0.00;;
56345;SDS011;42246;46.096;13.644;2022-09-29T18:17:45;0.00;;;0.00;;
56345;SDS011;42246;46.096;13.644;2022-09-29T18:20:20;1.17;;;0.68;;
56345;SDS011;42246;46.096;13.644;2022-09-29T18:22:47;1.10;;;0.30;;
56345;SDS011;42246;46.096;13.644;2022-09-29T18:25:14;0.05;;;0.03;;
56345;SDS011;42246;46.096;13.644;2022-09-29T18:27:42;0.00;;;0.00;;
56345;SDS011;42246;46.096;13.644;2022-09-29T18:30:21;0.20;;;0.08;;
56345;SDS011;42246;46.096;13.644;2022-09-29T18:32:49;0.00;;;0.00;;
56345;SDS011;42246;46.096;13.644;2022-09-29T18:35:20;0.40;;;0.10;;
56345;SDS011;42246;46.096;13.644;2022-09-29T18:37:47;1.27;;;0.30;;
56345;SDS011;42246;46.096;13.644;2022-09-29T18:40:12;0.38;;;0.20;;
56345;SDS011;42246;46.096;13.644;2022-09-29T18:42:42;6.40;;;0.55;;